Latest Weather Observations for Gympie

IDQ60901

Issued at 10:01 am EST Sunday 29 May 2016 (issued every 10 minutes, with the page automatically refreshed every 10 minutes)

About weather observations | Map of Brisbane area stations | Latest observations for Brisbane area | Other Formats
Station Details ID: 040093 Name: GYMPIE Lat: -26.18 Lon: 152.64 Height: 64.5 m
Data from the previous 72 hours. | See also: Recent months at Gympie
Date/Time
EST
Tmp

°C
App
Tmp
°C
Dew
Point
°C
Rel
Hum
%
Delta-T

°C
Wind Press
QNH
hPa
Press
MSL
hPa
Rain
since
9 am
mm
Dir
 
Spd
km/h
Gust
km/h
Spd
kts
Gust
kts
29/10:00am 18.4 16.9 3.1 36 7.1 CALM 0 6 0 3 1019.3 1019.2 0.0
29/09:30am 17.0 15.6 3.3 40 6.3 CALM 0 2 0 1 1019.3 1019.2 0.0
29/09:00am 16.0 14.5 3.1 42 5.9 CALM 0 4 0 2 1019.1 1019.0 0.0
29/08:30am 15.4 13.9 4.8 49 5.0 NNE 2 4 1 2 1019.1 1019.0 0.0
29/08:00am 11.6 9.4 5.3 65 2.9 N 6 7 3 4 1018.9 1018.8 0.0
29/07:30am 7.2 4.7 3.8 79 1.5 N 6 7 3 4 1018.5 1018.4 0.0
29/07:00am 6.0 3.4 3.3 83 1.1 N 6 7 3 4 1018.2 1018.1 0.0
29/06:30am 5.4 3.1 2.8 83 1.1 N 4 6 2 3 1017.9 1017.8 0.0
29/06:00am 7.5 4.8 3.6 76 1.7 N 7 9 4 5 1017.8 1017.7 0.0
29/05:30am 7.8 6.1 4.2 78 1.6 N 2 6 1 3 1017.5 1017.4 0.0
29/05:00am 7.5 5.4 4.1 79 1.5 N 4 6 2 3 1017.1 1017.0 0.0
29/04:30am 7.8 6.4 3.7 75 1.8 CALM 0 0 0 0 1016.9 1016.8 0.0
29/04:00am 8.8 6.8 4.6 75 1.9 SSW 4 6 2 3 1016.9 1016.8 0.0
29/03:30am 9.7 7.7 4.5 70 2.3 SE 4 6 2 3 1016.8 1016.7 0.0
29/03:00am 11.8 10.4 3.3 56 3.8 CALM 0 4 0 2 1016.5 1016.4 0.0
29/02:30am 10.4 9.2 4.5 67 2.6 CALM 0 2 0 1 1016.3 1016.2 0.0
29/02:00am 12.5 10.2 2.9 52 4.2 SW 4 6 2 3 1016.5 1016.4 0.0
29/01:30am 12.8 10.1 3.5 53 4.2 WSW 7 9 4 5 1016.3 1016.2 0.0
29/01:00am 12.5 10.4 3.7 55 3.9 WSW 4 6 2 3 1016.5 1016.4 0.0
29/12:30am 14.5 11.9 3.3 47 5.1 WNW 6 9 3 5 1016.3 1016.2 0.0
29/12:00am 14.9 11.8 3.7 47 5.1 NW 9 11 5 6 1016.2 1016.1 0.0
 
Date/Time
EST
Tmp

°C
App
Tmp
°C
Dew
Point
°C
Rel
Hum
%
Delta-T

°C
Wind Press
QNH
hPa
Press
MSL
hPa
Rain
since
9 am
mm
Dir
 
Spd
km/h
Gust
km/h
Spd
kts
Gust
kts
28/11:30pm 16.4 13.7 2.4 39 6.3 WNW 6 11 3 6 1016.3 1016.2 0.0
28/11:00pm 16.4 13.5 2.8 40 6.2 W 7 11 4 6 1016.5 1016.4 0.0
28/10:30pm 16.6 13.8 3.0 40 6.2 WSW 7 13 4 7 1016.6 1016.5 0.0
28/10:00pm 17.0 14.3 2.6 38 6.5 SW 6 9 3 5 1016.7 1016.6 0.0
28/09:30pm 17.6 15.0 3.1 38 6.7 WSW 6 13 3 7 1016.5 1016.4 0.0
28/09:00pm 17.8 15.6 3.3 38 6.7 SW 4 6 2 3 1016.3 1016.2 0.0
28/08:30pm 17.9 15.7 3.4 38 6.8 SSW 4 7 2 4 1016.1 1016.0 0.0
28/08:00pm 18.7 15.2 3.7 37 7.1 SW 11 20 6 11 1015.6 1015.5 0.0
28/07:30pm 18.9 15.9 4.3 38 7.0 WSW 9 17 5 9 1015.2 1015.1 0.0
28/07:00pm 18.5 15.3 5.0 41 6.5 SW 11 17 6 9 1014.8 1014.7 0.0
28/06:30pm 18.9 16.3 4.3 38 7.0 SW 7 9 4 5 1014.2 1014.1 0.0
28/06:00pm 20.0 17.6 4.1 35 7.6 WSW 6 7 3 4 1013.6 1013.5 0.0
28/05:30pm 20.7 18.1 4.3 34 8.0 WSW 7 11 4 6 1013.1 1012.9 0.0
28/05:00pm 21.6 18.6 4.2 32 8.5 WSW 9 17 5 9 1012.6 1012.4 0.0
28/04:30pm 22.9 20.0 4.4 30 9.1 WSW 9 15 5 8 1012.0 1011.8 0.0
28/04:00pm 23.4 18.9 4.4 29 9.4 W 17 30 9 16 1011.6 1011.4 0.0
28/03:30pm 23.8 19.3 4.2 28 9.7 W 17 28 9 15 1011.3 1011.1 0.0
28/03:00pm 24.1 19.6 4.0 27 9.9 WNW 17 24 9 13 1011.0 1010.8 0.0
28/02:30pm 24.0 19.8 3.9 27 9.9 W 15 24 8 13 1011.0 1010.8 0.0
28/02:00pm 23.9 20.1 3.8 27 9.9 W 13 19 7 10 1011.0 1010.8 0.0
28/01:30pm 23.8 19.9 5.2 30 9.4 W 15 30 8 16 1011.1 1010.9 0.0
28/01:00pm 23.6 19.6 5.0 30 9.3 WNW 15 26 8 14 1011.2 1011.0 0.0
28/12:30pm 23.4 20.9 4.9 30 9.2 WSW 7 13 4 7 1011.7 1011.5 0.0
28/12:00pm 22.1 18.9 5.1 33 8.5 WSW 11 20 6 11 1012.2 1012.0 0.0
28/11:30am 21.8 19.0 5.3 34 8.2 WSW 9 20 5 11 1013.0 1012.8 0.0
28/11:00am 21.2 18.2 4.3 33 8.2 W 9 19 5 10 1013.4 1013.3 0.0
28/10:30am 20.8 18.5 5.6 37 7.6 W 7 15 4 8 1014.0 1013.9 0.0
28/10:00am 19.7 17.5 6.1 41 6.8 WSW 7 13 4 7 1014.4 1014.3 0.0
28/09:30am 18.7 16.8 6.5 45 6.1 WSW 6 13 3 7 1014.7 1014.6 0.0
28/09:00am 17.7 16.9 6.6 48 5.5 CALM 0 4 0 2 1014.7 1014.6 0.0
28/08:30am 16.7 15.8 7.6 55 4.6 NNW 2 6 1 3 1014.6 1014.5 0.0
28/08:00am 12.9 12.6 8.8 76 2.1 CALM 0 0 0 0 1014.2 1014.1 0.0
28/07:30am 10.5 10.0 7.7 83 1.4 CALM 0 0 0 0 1014.2 1014.1 0.0
28/07:00am 9.6 9.2 8.4 92 0.6 CALM 0 2 0 1 1013.7 1013.6 0.0
28/06:30am 9.2 8.6 7.6 90 0.8 CALM 0 0 0 0 1013.7 1013.6 0.0
28/06:00am 10.0 8.7 7.8 86 1.1 NNE 4 6 2 3 1013.2 1013.0 0.0
28/05:30am 10.8 9.2 7.9 82 1.4 N 6 6 3 3 1013.0 1012.8 0.0
28/05:00am 10.6 9.3 7.5 81 1.5 N 4 6 2 3 1012.8 1012.6 0.0
28/04:30am 11.6 11.3 8.6 82 1.5 CALM 0 0 0 0 1012.5 1012.3 0.0
28/04:00am 12.4 11.3 8.3 76 2.0 NNE 4 6 2 3 1012.3 1012.1 0.0
28/03:30am 13.3 12.5 8.0 70 2.6 W 2 4 1 2 1012.5 1012.3 0.0
28/03:00am 15.0 13.6 7.3 60 3.8 WSW 4 7 2 4 1012.0 1011.8 0.0
28/02:30am 15.7 13.9 7.2 57 4.2 SSW 6 9 3 5 1011.6 1011.4 0.0
28/02:00am 16.5 14.8 7.7 56 4.4 SSW 6 9 3 5 1011.9 1011.7 0.0
28/01:30am 16.9 15.6 9.1 60 4.0 SSW 6 9 3 5 1011.7 1011.5 0.0
28/01:00am 17.4 17.5 10.3 63 3.8 CALM 0 0 0 0 1011.9 1011.7 0.0
28/12:30am 18.5 17.8 8.5 52 5.2 SW 2 6 1 3 1011.8 1011.6 0.0
28/12:00am 19.3 17.3 8.6 50 5.6 W 9 15 5 8 1011.8 1011.6 0.0
 
Date/Time
EST
Tmp

°C
App
Tmp
°C
Dew
Point
°C
Rel
Hum
%
Delta-T

°C
Wind Press
QNH
hPa
Press
MSL
hPa
Rain
since
9 am
mm
Dir
 
Spd
km/h
Gust
km/h
Spd
kts
Gust
kts
27/11:30pm 19.7 18.0 9.9 53 5.3 W 9 17 5 9 1012.0 1011.8 0.0
27/11:00pm 20.1 18.6 10.5 54 5.2 W 9 17 5 9 1011.7 1011.5 0.0
27/10:30pm 20.4 19.2 11.6 57 4.9 W 9 15 5 8 1011.6 1011.4 0.0
27/10:00pm 20.4 19.8 12.4 60 4.5 WSW 7 13 4 7 1011.3 1011.1 0.0
27/09:30pm 20.9 20.3 12.3 58 4.8 SW 7 15 4 8 1011.2 1011.0 0.0
27/09:00pm 21.2 20.5 12.1 56 5.1 SW 7 11 4 6 1011.4 1011.2 0.0
27/08:30pm 21.6 20.8 11.6 53 5.6 SW 7 15 4 8 1011.4 1011.2 0.0
27/08:00pm 21.9 20.7 11.6 52 5.8 WSW 9 15 5 8 1010.9 1010.7 0.0
27/07:30pm 21.6 20.9 11.9 54 5.4 WSW 7 13 4 7 1010.3 1010.1 0.0
27/07:00pm 21.9 21.4 12.7 56 5.3 WSW 7 15 4 8 1010.1 1009.9 0.0
27/06:30pm 22.2 21.4 13.0 56 5.3 SW 9 19 5 10 1009.4 1009.2 0.0
27/06:00pm 22.8 22.4 13.0 54 5.7 WSW 7 17 4 9 1009.0 1008.8 0.0
27/05:30pm 23.0 22.8 12.9 53 5.8 SW 6 9 3 5 1008.9 1008.7 0.0
27/05:00pm 23.6 23.3 13.2 52 6.0 SW 7 17 4 9 1008.2 1008.0 0.0
27/04:30pm 25.1 24.0 13.0 47 7.0 WSW 11 24 6 13 1008.0 1007.8 0.0
27/04:00pm 26.4 24.0 12.8 43 8.0 W 17 26 9 14 1007.6 1007.4 0.0
27/03:30pm 26.6 23.9 13.0 43 8.0 WSW 19 32 10 17 1007.2 1007.0 0.0
27/03:00pm 26.9 26.0 13.6 44 7.9 WSW 11 26 6 14 1007.0 1006.8 0.0
27/02:30pm 27.1 25.5 13.8 44 7.9 WSW 15 20 8 11 1006.8 1006.7 0.0
27/02:00pm 26.8 25.4 14.5 46 7.4 WSW 15 24 8 13 1007.2 1007.0 0.0
27/01:30pm 26.9 24.9 14.0 45 7.7 WSW 17 32 9 17 1007.2 1007.0 0.0
27/01:00pm 27.3 25.7 14.0 44 8.0 WNW 15 28 8 15 1007.1 1006.9 0.0
27/12:30pm 26.7 25.8 14.8 48 7.2 W 13 28 7 15 1007.6 1007.4 0.0
27/12:00pm 27.0 25.3 14.7 47 7.4 WNW 17 30 9 16 1007.7 1007.5 0.0
27/11:30am 25.7 23.9 14.5 50 6.7 WNW 17 28 9 15 1008.5 1008.3 0.0
27/11:00am 25.4 23.3 14.8 52 6.4 W 19 32 10 17 1009.2 1009.0 0.0
27/10:30am 25.3 24.1 15.0 53 6.2 WNW 15 28 8 15 1009.4 1009.2 0.0
27/10:00am 25.0 23.4 15.0 53 6.0 W 17 30 9 16 1009.6 1009.4 0.0
27/09:30am 24.5 23.2 14.9 55 5.8 W 15 28 8 15 1009.8 1009.6 0.0
27/09:00am 23.9 24.9 16.4 63 4.6 NW 6 11 3 6 1010.2 1010.0 0.0
27/08:30am 21.4 22.5 17.0 76 2.7 N 7 13 4 7 1010.1 1009.9 0.0
27/08:00am 20.7 21.8 17.1 80 2.2 N 7 11 4 6 1009.9 1009.7 0.0
27/07:30am 20.2 20.9 17.0 82 2.0 NNW 9 15 5 8 1009.7 1009.5 0.0
27/07:00am 20.3 20.6 17.1 82 2.0 NNW 11 17 6 9 1009.2 1009.0 0.0
27/06:30am 19.7 21.1 17.3 86 1.5 NW 6 9 3 5 1009.0 1008.8 0.0
27/06:00am 19.1 19.9 17.4 90 1.0 N 9 17 5 9 1008.5 1008.3 0.0
27/05:30am 19.1 20.1 17.8 92 0.8 N 9 13 5 7 1008.2 1008.0 0.0
27/05:00am 19.2 20.6 17.7 91 0.9 N 7 11 4 6 1008.6 1008.4 0.0
27/04:30am 19.5 21.6 18.0 91 0.9 NNW 4 7 2 4 1008.6 1008.4 0.0
27/04:00am 19.4 20.9 17.7 90 1.0 WNW 6 9 3 5 1008.7 1008.5 0.0
27/03:30am 20.0 21.7 18.5 91 0.9 NNW 7 11 4 6 1008.3 1008.1 0.0
27/03:00am 20.0 21.5 18.1 89 1.2 NW 7 13 4 7 1008.2 1008.0 0.0
27/02:30am 20.1 21.2 18.1 88 1.2 NW 9 17 5 9 1008.2 1008.0 0.0
27/02:00am 20.5 20.9 18.1 86 1.5 NNW 13 19 7 10 1008.2 1008.0 0.0
27/01:30am 20.6 21.6 17.8 84 1.7 NW 9 17 5 9 1008.7 1008.5 0.0
27/01:00am 20.8 21.4 17.8 83 1.9 NNW 11 17 6 9 1008.5 1008.3 0.0
27/12:30am 21.0 21.7 18.0 83 1.9 NNW 11 19 6 10 1009.0 1008.8 0.0
27/12:00am 21.0 21.3 18.0 83 1.9 NNW 13 20 7 11 1009.4 1009.2 0.0
 
Date/Time
EST
Tmp

°C
App
Tmp
°C
Dew
Point
°C
Rel
Hum
%
Delta-T

°C
Wind Press
QNH
hPa
Press
MSL
hPa
Rain
since
9 am
mm
Dir
 
Spd
km/h
Gust
km/h
Spd
kts
Gust
kts
26/11:30pm 21.2 22.0 18.2 83 1.9 NNW 11 19 6 10 1009.8 1009.6 0.0
26/11:00pm 21.1 22.2 18.1 83 1.9 NNW 9 19 5 10 1009.9 1009.7 0.0
26/10:30pm 21.2 21.8 17.8 81 2.1 NNW 11 20 6 11 1009.9 1009.7 0.0
26/10:00pm 21.7 22.0 17.9 79 2.4 NNW 13 20 7 11 1009.9 1009.7 0.0
26/09:30pm 21.8 21.8 18.0 79 2.4 N 15 22 8 12 1009.9 1009.7 0.0
26/09:00pm 22.0 21.9 17.8 77 2.6 N 15 24 8 13 1010.3 1010.1 0.0
26/08:30pm 22.2 21.7 17.8 76 2.7 N 17 24 9 13 1010.4 1010.2 0.0
26/08:00pm 22.1 22.4 17.9 77 2.6 N 13 20 7 11 1010.7 1010.5 0.0
26/07:30pm 22.5 23.0 18.3 77 2.6 N 13 19 7 10 1010.5 1010.3 0.0
26/07:00pm 22.8 23.9 18.1 75 2.9 N 9 15 5 8 1010.4 1010.2 0.0
26/06:30pm 23.4 24.3 18.3 73 3.2 N 11 19 6 10 1010.3 1010.1 0.0
26/06:00pm 24.3 24.6 17.1 64 4.5 N 11 19 6 10 1009.7 1009.5 0.0
26/05:30pm 25.8 25.4 14.0 48 7.0 N 9 20 5 11 1009.5 1009.3 0.0
26/05:00pm 26.5 25.4 11.8 40 8.5 N 9 15 5 8 1009.3 1009.1 0.0
26/04:30pm 27.9 25.9 11.5 36 9.4 NNW 13 20 7 11 1009.3 1009.1 0.0
26/04:00pm 28.6 25.8 11.2 34 10.0 N 17 24 9 13 1009.0 1008.8 0.0
26/03:30pm 28.9 26.4 11.0 33 10.3 NNW 15 22 8 12 1009.2 1009.0 0.0
26/03:00pm 29.1 26.6 11.2 33 10.3 N 15 22 8 12 1009.5 1009.3 0.0
26/02:30pm 29.0 26.5 11.1 33 10.3 N 15 32 8 17 1009.6 1009.4 0.0
26/02:00pm 28.6 27.7 13.7 40 8.9 NNW 11 22 6 12 1010.1 1009.9 0.0
26/01:30pm 27.7 25.8 12.9 40 8.7 NNW 15 28 8 15 1010.5 1010.3 0.0
26/01:00pm 26.9 25.0 12.9 42 8.2 NW 15 22 8 12 1011.6 1011.4 0.0
26/12:30pm 26.4 25.6 13.9 46 7.4 NNW 11 20 6 11 1012.4 1012.2 0.0
26/12:00pm 25.1 22.7 12.7 46 7.2 NW 17 24 9 13 1013.3 1013.1 0.0
26/11:30am 24.3 22.6 13.5 51 6.3 NNW 15 22 8 12 1014.0 1013.9 0.0
26/11:00am 24.0 23.3 14.4 55 5.7 NNW 11 22 6 12 1014.8 1014.7 0.0
26/10:30am 22.3 20.5 14.4 61 4.6 NNW 17 26 9 14 1015.5 1015.4 0.0

Latest Capital City Observations: Canberra | Sydney | Melbourne | Brisbane | Adelaide | Perth | Hobart | Darwin

Other Formats:

Comma delimited format used in spreadsheet applications
http://www.bom.gov.au/fwo/IDQ60901/IDQ60901.94566.axf

JavaScript Object Notation format (JSON) in row-major order
http://www.bom.gov.au/fwo/IDQ60901/IDQ60901.94566.json